Time;durP1;ratioP1;P1;durP2;ratioP2;P2;SDS_P1;SDS_P2;PMS_P1;PMS_P2;Temp;Humidity;BMP_temperature;BMP_pressure;BME280_temperature;BME280_humidity;BME280_pressure;Samples;Min_cycle;Max_cycle;Signal;HPM_P1;HPM_P2
2021/09/18 02:35:19;;;;;;;8.85;4.15;;;14.20;99.90;;;;;;5845236;24;20181;-84
2021/09/18 02:37:47;;;;;;;4.32;3.65;;;14.20;99.90;;;;;;5810714;24;20223;-84
2021/09/18 02:40:15;;;;;;;6.07;3.38;;;14.10;99.90;;;;;;6037178;23;20181;-85
2021/09/18 02:42:44;;;;;;;4.95;4.07;;;14.00;99.90;;;;;;6129025;23;20734;-85
2021/09/18 02:45:12;;;;;;;7.43;4.22;;;14.00;99.90;;;;;;6180811;23;20200;-86
2021/09/18 02:47:40;;;;;;;4.55;3.75;;;14.00;99.90;;;;;;6182646;23;20172;-86
2021/09/18 02:50:12;;;;;;;6.63;4.28;;;13.90;99.90;;;;;;6183328;23;20164;-84
2021/09/18 02:52:41;;;;;;;5.53;4.97;;;13.90;99.90;;;;;;6181514;23;20169;-83
2021/09/18 02:55:10;;;;;;;6.80;4.20;;;13.90;99.90;;;;;;6167942;23;20215;-84
2021/09/18 02:57:39;;;;;;;8.05;4.82;;;13.80;99.90;;;;;;6167991;23;20181;-84
2021/09/18 03:00:11;;;;;;;5.38;4.88;;;13.80;99.90;;;;;;6167210;23;20202;-84
2021/09/18 03:02:39;;;;;;;7.32;4.15;;;13.70;99.90;;;;;;6171032;23;20170;-84
2021/09/18 03:05:09;;;;;;;5.72;5.10;;;13.60;99.90;;;;;;6169899;23;20224;-84
2021/09/18 03:07:36;;;;;;;6.53;5.53;;;13.50;99.90;;;;;;6172597;23;20184;-84
2021/09/18 03:10:07;;;;;;;6.93;5.40;;;13.40;99.90;;;;;;6168084;23;20175;-84
2021/09/18 03:12:40;;;;;;;7.20;5.75;;;13.40;99.90;;;;;;6169924;23;20168;-85
2021/09/18 03:15:09;;;;;;;6.28;4.90;;;13.30;99.90;;;;;;6168175;23;20542;-84
2021/09/18 03:17:36;;;;;;;6.50;5.07;;;13.30;99.90;;;;;;6171702;23;20212;-83
2021/09/18 03:20:04;;;;;;;7.28;4.40;;;13.20;99.90;;;;;;6171628;23;20262;-84
2021/09/18 03:22:34;;;;;;;6.50;5.20;;;13.30;99.90;;;;;;6174076;23;20206;-84
2021/09/18 03:25:01;;;;;;;6.72;4.75;;;13.20;99.90;;;;;;6168282;23;20254;-86
2021/09/18 03:27:32;;;;;;;6.18;5.35;;;13.20;99.90;;;;;;6182266;23;20234;-86
2021/09/18 03:30:03;;;;;;;5.60;4.47;;;13.10;99.90;;;;;;6171091;23;20193;-84
2021/09/18 03:32:30;;;;;;;7.57;5.55;;;12.90;99.90;;;;;;6171007;23;20174;-85
2021/09/18 03:34:57;;;;;;;5.80;4.78;;;13.10;99.90;;;;;;6172341;23;20199;-84
2021/09/18 03:37:24;;;;;;;9.70;5.20;;;13.00;99.90;;;;;;6172155;23;20228;-85
2021/09/18 03:39:55;;;;;;;4.88;4.40;;;13.10;99.90;;;;;;6200931;23;20344;-85
2021/09/18 03:42:22;;;;;;;6.30;4.65;;;13.10;99.90;;;;;;6199665;23;20185;-83
2021/09/18 03:44:50;;;;;;;8.18;4.35;;;13.10;99.90;;;;;;6199313;23;20202;-83
2021/09/18 03:47:17;;;;;;;5.72;5.03;;;13.20;99.90;;;;;;6199635;23;20184;-84
2021/09/18 03:49:47;;;;;;;7.53;4.82;;;13.30;99.90;;;;;;6195068;23;20203;-84
2021/09/18 03:52:19;;;;;;;4.45;4.05;;;13.30;99.90;;;;;;6196483;23;20170;-84
2021/09/18 03:54:46;;;;;;;5.43;3.88;;;13.40;99.90;;;;;;6205449;23;20210;-85
2021/09/18 03:57:14;;;;;;;6.80;4.80;;;13.40;99.90;;;;;;6206183;23;20261;-84
2021/09/18 03:59:41;;;;;;;5.72;4.63;;;13.50;99.90;;;;;;6197173;23;20258;-84
2021/09/18 04:02:09;;;;;;;5.45;3.97;;;13.60;99.90;;;;;;6193639;23;20213;-84
2021/09/18 04:04:38;;;;;;;5.88;4.85;;;13.60;99.90;;;;;;6193802;23;20203;-85
2021/09/18 04:07:06;;;;;;;6.10;4.45;;;13.70;99.90;;;;;;6195061;23;20177;-84
2021/09/18 04:09:33;;;;;;;6.20;5.03;;;13.80;99.90;;;;;;6194451;23;20200;-83
2021/09/18 04:12:00;;;;;;;5.07;4.40;;;13.80;99.90;;;;;;6197294;23;20608;-84
2021/09/18 04:14:27;;;;;;;9.85;5.70;;;13.80;99.90;;;;;;6199125;23;20204;-84
2021/09/18 04:16:55;;;;;;;5.82;4.60;;;13.90;99.90;;;;;;6204309;23;20182;-83
2021/09/18 04:19:24;;;;;;;4.65;4.25;;;13.80;99.90;;;;;;6209125;23;20159;-84
2021/09/18 04:21:54;;;;;;;6.85;5.15;;;13.80;99.90;;;;;;6210134;23;20227;-84
2021/09/18 04:24:21;;;;;;;6.00;4.60;;;13.90;99.90;;;;;;6210912;23;20206;-84
2021/09/18 04:26:51;;;;;;;4.90;4.40;;;13.80;99.90;;;;;;6210273;23;20176;-85
2021/09/18 04:29:18;;;;;;;6.38;4.82;;;13.80;99.90;;;;;;6211184;23;20226;-85
2021/09/18 04:31:45;;;;;;;5.72;4.43;;;13.80;99.90;;;;;;6207363;23;20175;-85
2021/09/18 04:34:12;;;;;;;8.88;4.72;;;13.80;99.90;;;;;;6207445;23;20195;-84
2021/09/18 04:36:44;;;;;;;8.60;3.60;;;13.80;99.90;;;;;;6204373;23;20179;-85
2021/09/18 04:39:13;;;;;;;4.20;3.80;;;13.80;99.90;;;;;;6201031;23;20222;-85
2021/09/18 04:41:40;;;;;;;9.20;4.63;;;13.80;99.90;;;;;;6199321;23;20190;-84
2021/09/18 04:44:07;;;;;;;3.72;3.33;;;13.90;99.90;;;;;;6199724;23;20215;-84
2021/09/18 04:46:34;;;;;;;5.78;4.20;;;13.90;99.90;;;;;;6199322;23;20199;-84
2021/09/18 04:49:02;;;;;;;5.43;4.05;;;14.00;99.90;;;;;;6200261;23;20209;-85
2021/09/18 04:51:31;;;;;;;6.53;4.47;;;14.10;99.90;;;;;;6200456;23;20182;-85
2021/09/18 04:53:59;;;;;;;10.45;4.85;;;14.10;99.90;;;;;;6200685;23;20239;-84
2021/09/18 04:56:26;;;;;;;4.05;3.72;;;14.10;99.90;;;;;;6202786;23;20182;-83
2021/09/18 04:58:53;;;;;;;8.95;4.88;;;14.20;99.90;;;;;;6202582;23;20220;-84
2021/09/18 05:01:21;;;;;;;4.20;3.67;;;14.20;99.90;;;;;;6201963;23;20167;-85
2021/09/18 05:03:48;;;;;;;3.60;3.30;;;14.30;99.90;;;;;;6199694;23;20164;-84
2021/09/18 05:06:15;;;;;;;3.20;2.90;;;14.30;99.90;;;;;;6199619;23;20276;-85
2021/09/18 05:08:42;;;;;;;5.97;3.50;;;14.30;99.90;;;;;;6199176;23;20195;-85
2021/09/18 05:11:13;;;;;;;5.43;4.20;;;14.30;99.90;;;;;;6200617;23;20166;-84
2021/09/18 05:13:40;;;;;;;5.18;4.50;;;14.30;99.90;;;;;;6204486;23;20165;-85
2021/09/18 05:16:07;;;;;;;4.72;4.00;;;14.30;99.90;;;;;;6192766;23;20204;-83
2021/09/18 05:18:35;;;;;;;5.35;4.22;;;14.30;99.90;;;;;;6198102;23;20183;-84
2021/09/18 05:21:02;;;;;;;5.70;4.30;;;14.30;99.90;;;;;;6198076;23;20191;-84
2021/09/18 05:23:29;;;;;;;4.20;3.78;;;14.30;99.90;;;;;;6199262;23;20196;-81
2021/09/18 05:25:56;;;;;;;4.03;3.63;;;14.30;99.90;;;;;;6199098;23;20256;-84
2021/09/18 05:28:25;;;;;;;4.55;3.35;;;14.30;99.90;;;;;;6200204;23;20212;-83
2021/09/18 05:30:52;;;;;;;6.60;4.95;;;14.20;99.90;;;;;;6202137;23;20172;-80
2021/09/18 05:33:19;;;;;;;4.50;4.10;;;14.30;99.90;;;;;;6210154;23;20202;-77
2021/09/18 05:35:47;;;;;;;10.65;6.28;;;14.30;99.90;;;;;;6212827;23;20184;-77
2021/09/18 05:38:14;;;;;;;7.00;4.68;;;14.40;99.90;;;;;;6212996;23;20157;-78
2021/09/18 05:40:42;;;;;;;8.90;5.07;;;14.40;99.90;;;;;;6213094;23;20169;-77
2021/09/18 05:43:09;;;;;;;6.28;5.40;;;14.50;99.90;;;;;;6210800;23;20192;-76
2021/09/18 05:45:38;;;;;;;5.28;4.07;;;14.50;99.90;;;;;;6205315;23;20260;-84
2021/09/18 05:48:06;;;;;;;6.95;3.97;;;14.50;99.90;;;;;;6202544;23;20188;-82
2021/09/18 05:50:34;;;;;;;6.22;4.75;;;14.60;99.90;;;;;;6202165;23;20663;-83
2021/09/18 05:53:01;;;;;;;5.85;4.57;;;14.60;99.90;;;;;;6198165;23;20187;-81
2021/09/18 05:55:29;;;;;;;5.25;4.13;;;14.70;99.90;;;;;;6198494;23;20211;-83
2021/09/18 05:57:57;;;;;;;6.65;4.97;;;14.80;99.90;;;;;;6198716;23;20187;-84
2021/09/18 06:00:24;;;;;;;4.80;4.20;;;14.90;99.90;;;;;;6198261;23;20157;-83
2021/09/18 06:02:53;;;;;;;6.60;4.35;;;15.00;99.90;;;;;;6198408;23;20186;-82
2021/09/18 06:05:20;;;;;;;8.15;4.82;;;15.00;99.90;;;;;;6197639;23;20678;-84
2021/09/18 06:07:47;;;;;;;11.90;5.18;;;15.00;99.90;;;;;;6198772;23;20180;-84
2021/09/18 06:10:14;;;;;;;6.20;4.35;;;15.00;99.90;;;;;;6198526;23;20195;-83
2021/09/18 06:12:41;;;;;;;6.28;4.97;;;15.10;99.90;;;;;;6197358;23;20188;-82
2021/09/18 06:15:10;;;;;;;6.47;4.57;;;15.20;99.90;;;;;;6197575;23;20207;-83
2021/09/18 06:17:37;;;;;;;7.22;4.13;;;15.20;99.90;;;;;;6197698;23;20191;-84
2021/09/18 06:20:09;;;;;;;5.57;3.83;;;15.10;99.90;;;;;;6198413;23;20187;-84
2021/09/18 06:22:36;;;;;;;7.65;4.18;;;15.00;99.90;;;;;;6200219;23;20556;-86
2021/09/18 06:25:05;;;;;;;7.05;5.05;;;15.00;99.90;;;;;;6201329;23;20207;-86
2021/09/18 06:27:33;;;;;;;4.32;3.50;;;15.10;99.90;;;;;;6201311;23;20225;-84
2021/09/18 06:30:00;;;;;;;4.57;3.88;;;15.10;99.90;;;;;;6200899;23;20635;-82
2021/09/18 06:32:28;;;;;;;7.15;4.60;;;15.20;99.90;;;;;;6200097;23;20180;-78
2021/09/18 06:34:55;;;;;;;6.20;4.10;;;15.30;99.90;;;;;;6200095;23;20252;-83
2021/09/18 06:37:24;;;;;;;5.30;3.90;;;15.40;99.90;;;;;;6202428;23;20164;-84
2021/09/18 06:39:51;;;;;;;4.65;4.00;;;15.40;99.90;;;;;;6200404;23;20179;-86
2021/09/18 06:42:18;;;;;;;10.90;4.78;;;15.50;99.90;;;;;;6199776;23;20184;-86
2021/09/18 06:44:46;;;;;;;5.97;5.03;;;15.60;99.90;;;;;;6199812;23;20204;-82
2021/09/18 06:47:13;;;;;;;5.47;4.75;;;15.60;99.90;;;;;;6200748;23;20253;-84
2021/09/18 06:49:40;;;;;;;5.45;4.70;;;15.60;99.90;;;;;;6200875;23;20207;-81
2021/09/18 06:52:07;;;;;;;5.45;4.55;;;15.70;99.90;;;;;;6201343;23;20171;-84
2021/09/18 06:54:36;;;;;;;5.32;3.88;;;15.70;99.90;;;;;;6200935;23;20223;-83
2021/09/18 06:57:04;;;;;;;4.35;3.95;;;15.80;99.90;;;;;;6202746;23;20187;-81
2021/09/18 06:59:31;;;;;;;5.00;4.38;;;15.80;99.90;;;;;;6200357;23;20481;-84
2021/09/18 07:01:58;;;;;;;6.75;3.63;;;15.90;99.90;;;;;;6205181;23;20187;-80
2021/09/18 07:04:25;;;;;;;4.55;3.80;;;15.90;99.90;;;;;;6204141;23;20201;-85
2021/09/18 07:06:53;;;;;;;7.18;4.90;;;15.90;99.90;;;;;;6200241;23;20166;-84
2021/09/18 07:09:20;;;;;;;4.18;3.63;;;15.90;99.90;;;;;;6202150;23;20205;-84
2021/09/18 07:11:48;;;;;;;7.13;4.68;;;16.00;99.90;;;;;;6200978;23;20173;-84
2021/09/18 07:14:16;;;;;;;8.32;4.88;;;16.10;99.90;;;;;;6201930;23;20178;-84
2021/09/18 07:16:43;;;;;;;4.88;4.00;;;16.20;99.90;;;;;;6202207;23;20150;-83
2021/09/18 07:19:13;;;;;;;6.72;5.05;;;16.20;99.90;;;;;;6202623;23;20231;-83
2021/09/18 07:21:40;;;;;;;8.52;4.10;;;16.20;99.90;;;;;;6202135;23;20188;-86
2021/09/18 07:24:08;;;;;;;4.80;4.05;;;16.20;99.90;;;;;;6201618;23;20254;-82
2021/09/18 07:26:36;;;;;;;4.88;3.25;;;16.30;99.90;;;;;;6201069;23;20185;-86
2021/09/18 07:29:07;;;;;;;7.70;4.85;;;16.40;99.90;;;;;;6200855;23;20265;-86
2021/09/18 07:31:37;;;;;;;8.30;4.80;;;16.50;99.90;;;;;;6200415;23;20190;-85
2021/09/18 07:34:04;;;;;;;8.35;5.50;;;16.50;99.90;;;;;;6200817;23;20181;-85
2021/09/18 07:36:31;;;;;;;6.22;4.28;;;16.40;99.90;;;;;;6209743;23;20207;-81
2021/09/18 07:38:59;;;;;;;4.85;3.95;;;16.60;99.90;;;;;;6211601;23;20210;-82
2021/09/18 07:41:26;;;;;;;5.93;4.80;;;16.60;99.90;;;;;;6211871;23;20186;-82
2021/09/18 07:43:59;;;;;;;4.90;4.50;;;16.70;99.90;;;;;;6211232;23;20218;-79
2021/09/18 07:46:31;;;;;;;9.77;5.38;;;16.70;99.90;;;;;;6212070;23;20166;-81
2021/09/18 07:49:02;;;;;;;6.13;4.28;;;16.80;99.90;;;;;;6211824;23;20181;-79
2021/09/18 07:51:31;;;;;;;7.93;4.05;;;16.90;99.90;;;;;;6211626;23;20158;-81
2021/09/18 07:53:58;;;;;;;4.07;3.67;;;17.00;99.90;;;;;;6211165;23;20167;-80
2021/09/18 07:56:25;;;;;;;5.32;4.35;;;17.00;99.90;;;;;;6211162;23;20191;-83
2021/09/18 07:58:54;;;;;;;10.85;4.50;;;17.10;99.90;;;;;;6210584;23;20264;-84
2021/09/18 08:01:23;;;;;;;4.85;3.70;;;17.10;99.90;;;;;;6208269;23;20193;-85
2021/09/18 08:03:51;;;;;;;7.37;5.47;;;17.20;99.90;;;;;;6201305;23;20175;-85
2021/09/18 08:06:19;;;;;;;7.57;5.13;;;17.40;99.90;;;;;;6202478;23;20439;-85
2021/09/18 08:08:46;;;;;;;7.27;4.80;;;17.50;99.90;;;;;;6202140;23;20757;-84
2021/09/18 08:11:13;;;;;;;6.82;4.55;;;17.60;99.90;;;;;;6202943;23;20473;-84
2021/09/18 08:13:42;;;;;;;6.07;5.43;;;17.70;99.90;;;;;;6206701;23;20164;-80
2021/09/18 08:16:09;;;;;;;5.70;4.60;;;17.90;99.90;;;;;;6211221;23;20400;-81
2021/09/18 08:18:36;;;;;;;5.70;5.13;;;18.10;99.90;;;;;;6213162;23;20426;-79
2021/09/18 08:21:05;;;;;;;5.73;5.20;;;18.30;99.90;;;;;;6213299;23;20417;-79
2021/09/18 08:23:32;;;;;;;10.30;5.90;;;18.40;99.90;;;;;;6213070;23;20459;-79
2021/09/18 08:26:00;;;;;;;5.33;4.83;;;18.70;99.90;;;;;;6213250;23;20466;-81
2021/09/18 08:28:27;;;;;;;5.33;4.83;;;18.80;99.90;;;;;;6213009;23;20399;-82
2021/09/18 08:30:54;;;;;;;4.97;4.47;;;19.00;99.90;;;;;;6212473;23;20455;-78
2021/09/18 08:33:23;;;;;;;7.37;5.60;;;19.30;99.90;;;;;;6213309;23;20421;-82
2021/09/18 08:35:50;;;;;;;6.63;4.73;;;19.50;99.90;;;;;;6212885;23;20411;-79
2021/09/18 08:38:20;;;;;;;7.90;6.23;;;19.70;99.90;;;;;;6212419;23;20408;-80
2021/09/18 08:40:48;;;;;;;6.20;5.60;;;20.30;99.90;;;;;;6212874;23;20413;-78
2021/09/18 08:43:15;;;;;;;7.80;4.57;;;20.60;99.90;;;;;;6212636;23;20432;-79
2021/09/18 08:45:43;;;;;;;5.47;4.70;;;20.90;99.90;;;;;;6212453;23;20420;-79
2021/09/18 08:48:10;;;;;;;6.47;5.17;;;21.10;99.90;;;;;;6212858;23;20403;-80
2021/09/18 08:50:37;;;;;;;5.00;4.40;;;21.10;99.90;;;;;;6212508;23;20446;-79
2021/09/18 08:53:04;;;;;;;5.20;4.27;;;21.30;99.90;;;;;;6211412;23;20437;-82
2021/09/18 08:55:33;;;;;;;4.57;3.80;;;21.40;99.90;;;;;;6211196;23;20441;-80
2021/09/18 08:58:00;;;;;;;5.40;4.53;;;21.60;99.90;;;;;;6211553;23;20391;-81
2021/09/18 09:00:46;;;;;;;4.33;3.93;;;21.80;99.90;;;;;;6209342;23;20443;-85
2021/09/18 09:03:14;;;;;;;7.50;2.93;;;22.30;99.90;;;;;;6203823;23;20384;-81
2021/09/18 09:05:43;;;;;;;5.73;2.80;;;23.00;99.90;;;;;;6200315;23;20518;-84
2021/09/18 09:08:12;;;;;;;3.00;2.43;;;24.80;99.90;;;;;;6203524;23;20409;-83
2021/09/18 09:10:43;;;;;;;2.60;2.40;;;25.40;97.00;;;;;;6203379;23;20534;-83
2021/09/18 09:13:12;;;;;;;2.10;1.90;;;25.20;96.70;;;;;;6201783;23;20388;-82
2021/09/18 09:15:42;;;;;;;2.80;2.60;;;24.90;96.60;;;;;;6203568;23;20490;-87
2021/09/18 09:18:19;;;;;;;3.00;1.90;;;24.40;97.20;;;;;;6204303;23;20487;-86
2021/09/18 09:20:47;;;;;;;2.40;2.20;;;23.90;98.40;;;;;;6202496;23;20431;-83
2021/09/18 09:23:19;;;;;;;3.23;1.93;;;23.60;99.30;;;;;;6202255;23;20427;-83
2021/09/18 09:25:50;;;;;;;2.10;1.90;;;23.20;99.90;;;;;;6201214;23;20456;-83
2021/09/18 09:28:31;;;;;;;2.27;2.00;;;22.80;99.90;;;;;;6203755;23;20380;-88
2021/09/18 09:31:11;;;;;;;2.23;2.03;;;22.50;99.90;;;;;;6181560;23;20460;-79
2021/09/18 09:33:56;;;;;;;4.33;3.90;;;22.40;99.90;;;;;;6129608;23;20485;-77
2021/09/18 09:36:25;;;;;;;3.67;2.23;;;22.40;99.90;;;;;;6128725;23;20720;-75
2021/09/18 09:38:55;;;;;;;5.60;1.70;;;22.30;99.90;;;;;;6128356;23;20401;-74
2021/09/18 09:41:35;;;;;;;2.77;2.47;;;22.20;99.90;;;;;;6127268;23;20535;-74
2021/09/18 09:44:05;;;;;;;5.63;3.83;;;22.00;99.90;;;;;;6128850;23;20423;-75
2021/09/18 09:46:32;;;;;;;2.30;1.80;;;21.70;99.90;;;;;;6125380;23;20404;-73
2021/09/18 09:49:09;;;;;;;3.23;2.10;;;21.40;99.90;;;;;;6129726;23;20488;-74
2021/09/18 09:51:36;;;;;;;3.80;2.50;;;21.20;99.90;;;;;;6126920;23;20787;-74
2021/09/18 09:54:22;;;;;;;1.53;1.30;;;21.00;99.90;;;;;;6126656;23;20652;-75
2021/09/18 09:57:08;;;;;;;1.50;1.20;;;20.70;99.90;;;;;;6125899;23;20401;-75
2021/09/18 09:59:35;;;;;;;1.87;1.60;;;20.50;99.90;;;;;;6126670;23;20400;-74
2021/09/18 10:02:06;;;;;;;1.97;1.70;;;20.40;99.90;;;;;;6126221;23;20448;-74
2021/09/18 10:04:33;;;;;;;1.60;1.17;;;20.30;99.90;;;;;;6126771;23;20708;-74
2021/09/18 10:07:01;;;;;;;4.13;1.63;;;20.30;99.90;;;;;;6125347;23;20416;-74
2021/09/18 10:09:31;;;;;;;3.43;1.60;;;20.40;99.90;;;;;;6126280;23;20398;-72
2021/09/18 10:11:59;;;;;;;3.30;1.90;;;20.50;99.90;;;;;;6125733;23;20453;-73
2021/09/18 10:14:28;;;;;;;3.50;1.80;;;20.70;99.90;;;;;;6126273;23;20503;-74
2021/09/18 10:16:57;;;;;;;2.13;1.63;;;20.80;99.90;;;;;;6125921;23;20397;-73
2021/09/18 10:19:52;;;;;;;2.47;2.27;;;21.00;99.90;;;;;;6126889;23;20844;-73
2021/09/18 10:25:15;;;;;;;2.83;1.13;;;21.20;99.90;;;;;;6125388;23;20448;-74
2021/09/18 10:27:59;;;;;;;1.73;1.40;;;21.20;99.90;;;;;;6127190;23;20400;-73
2021/09/18 10:30:31;;;;;;;2.20;1.40;;;21.20;99.90;;;;;;6126104;23;20458;-74
2021/09/18 10:32:58;;;;;;;1.20;1.00;;;21.20;99.90;;;;;;6126409;23;20439;-73
2021/09/18 10:35:26;;;;;;;1.77;1.00;;;21.00;99.90;;;;;;6125620;23;20403;-73
2021/09/18 10:37:53;;;;;;;1.80;1.53;;;21.30;99.90;;;;;;6125759;23;20403;-74
2021/09/18 10:40:20;;;;;;;1.40;1.00;;;21.40;99.90;;;;;;6125118;23;20499;-73
2021/09/18 10:42:50;;;;;;;1.83;1.70;;;21.40;99.90;;;;;;6123860;23;20436;-74
2021/09/18 10:45:19;;;;;;;1.97;1.47;;;21.60;99.90;;;;;;6123475;23;20402;-74
2021/09/18 10:47:48;;;;;;;2.10;1.87;;;21.90;99.90;;;;;;6124101;23;20394;-74
2021/09/18 10:50:38;;;;;;;1.33;1.00;;;22.20;99.90;;;;;;6124057;23;20437;-74
2021/09/18 10:53:08;;;;;;;1.27;1.03;;;22.30;99.90;;;;;;6124970;23;20438;-74
2021/09/18 10:55:53;;;;;;;3.80;1.87;;;22.20;99.90;;;;;;6124198;23;20719;-73
2021/09/18 10:58:23;;;;;;;2.63;1.17;;;22.00;99.90;;;;;;6125820;23;20929;-74
2021/09/18 11:00:54;;;;;;;1.40;1.23;;;21.70;99.90;;;;;;6125377;23;21021;-74
2021/09/18 11:03:42;;;;;;;1.47;1.37;;;21.40;99.90;;;;;;6126238;23;20441;-75
2021/09/18 11:06:10;;;;;;;4.07;2.00;;;21.40;99.90;;;;;;6125004;23;20942;-75
2021/09/18 11:08:55;;;;;;;2.37;1.90;;;21.30;99.90;;;;;;6127648;23;20860;-74
2021/09/18 11:11:26;;;;;;;3.20;1.70;;;21.30;99.90;;;;;;6125506;23;20755;-73
2021/09/18 11:13:58;;;;;;;2.57;2.37;;;21.10;99.90;;;;;;6126256;23;20397;-74
2021/09/18 11:19:01;;;;;;;2.10;1.90;;;21.10;99.90;;;;;;6096722;23;20401;-73
2021/09/18 11:21:29;;;;;;;2.33;1.50;;;21.10;99.90;;;;;;6095641;23;20454;-73
2021/09/18 11:24:00;;;;;;;2.70;1.90;;;21.00;99.90;;;;;;6095769;23;20401;-72
2021/09/18 11:26:52;;;;;;;2.20;2.00;;;20.80;99.90;;;;;;6095786;23;20382;-74
2021/09/18 11:29:29;;;;;;;3.50;2.80;;;20.80;99.90;;;;;;6079536;23;20550;-73
2021/09/18 11:32:04;;;;;;;2.80;2.13;;;20.70;99.90;;;;;;6095591;23;20940;-76
2021/09/18 11:34:34;;;;;;;2.60;2.40;;;20.70;99.90;;;;;;6069494;23;20812;-75
2021/09/18 11:37:03;;;;;;;3.73;2.73;;;20.50;99.90;;;;;;6095455;23;20393;-73
2021/09/18 11:39:56;;;;;;;1.90;1.70;;;20.60;99.90;;;;;;6095821;23;20424;-75
2021/09/18 11:42:31;;;;;;;4.57;2.23;;;20.40;99.90;;;;;;6061554;23;20460;-72
2021/09/18 11:45:08;;;;;;;2.10;1.90;;;20.40;99.90;;;;;;6095090;23;20985;-76
2021/09/18 11:47:40;;;;;;;2.10;1.90;;;20.40;99.90;;;;;;6095384;23;20867;-74
2021/09/18 11:50:23;;;;;;;3.43;2.93;;;20.50;99.90;;;;;;6094643;23;20442;-72
2021/09/18 11:52:52;;;;;;;2.87;2.57;;;20.70;99.90;;;;;;6092688;23;20463;-75
2021/09/18 11:55:31;;;;;;;3.37;2.67;;;20.70;99.90;;;;;;6096691;23;20887;-73
2021/09/18 11:58:08;;;;;;;2.10;1.90;;;20.90;99.90;;;;;;6097005;23;20405;-75
2021/09/18 12:00:38;;;;;;;2.40;1.70;;;21.00;99.90;;;;;;6072019;23;20423;-73
2021/09/18 12:03:06;;;;;;;3.53;2.80;;;21.00;99.90;;;;;;6097324;23;20492;-72
2021/09/18 12:05:33;;;;;;;3.60;2.17;;;20.90;99.90;;;;;;6097030;23;20793;-72
2021/09/18 12:08:01;;;;;;;2.90;2.60;;;21.00;99.90;;;;;;6098330;23;20735;-75
2021/09/18 12:10:28;;;;;;;2.30;1.70;;;21.20;99.90;;;;;;6097499;23;20409;-72
2021/09/18 12:12:57;;;;;;;1.90;1.70;;;21.40;99.90;;;;;;6097724;23;20435;-75
2021/09/18 12:15:32;;;;;;;2.73;2.40;;;21.40;99.90;;;;;;6097380;23;20757;-73
2021/09/18 12:18:02;;;;;;;2.37;2.17;;;21.50;99.90;;;;;;6098056;23;20422;-73
2021/09/18 12:20:29;;;;;;;2.43;2.23;;;21.50;99.90;;;;;;6098001;23;20461;-73
2021/09/18 12:22:56;;;;;;;2.10;1.90;;;21.60;99.90;;;;;;6097655;23;20437;-73
2021/09/18 12:25:27;;;;;;;2.23;2.03;;;21.80;99.90;;;;;;6096883;23;20712;-73
2021/09/18 12:27:59;;;;;;;2.10;1.90;;;22.10;99.90;;;;;;6097340;23;20466;-72
2021/09/18 12:30:39;;;;;;;4.50;2.37;;;22.30;99.90;;;;;;6097294;23;20489;-71
2021/09/18 12:33:09;;;;;;;2.20;1.77;;;22.20;99.90;;;;;;6072679;23;20921;-77
2021/09/18 12:35:42;;;;;;;2.50;1.50;;;22.10;99.90;;;;;;6096544;23;20399;-76
2021/09/18 12:38:09;;;;;;;1.80;1.40;;;22.30;99.90;;;;;;6097227;23;20399;-73
2021/09/18 12:40:41;;;;;;;2.33;1.63;;;22.40;99.90;;;;;;6097891;23;20401;-74
2021/09/18 12:43:11;;;;;;;1.50;1.40;;;22.40;99.90;;;;;;6097244;23;20580;-73
2021/09/18 12:45:38;;;;;;;2.93;1.63;;;22.40;99.90;;;;;;6097125;23;20883;-72
2021/09/18 12:48:21;;;;;;;2.03;1.43;;;22.50;99.90;;;;;;6097194;23;20399;-74
2021/09/18 12:51:05;;;;;;;2.20;1.80;;;22.40;99.90;;;;;;6097954;23;20421;-73
2021/09/18 12:53:35;;;;;;;4.63;1.53;;;22.50;99.90;;;;;;6098712;23;20375;-72
2021/09/18 12:56:21;;;;;;;4.33;2.30;;;22.50;99.90;;;;;;6096518;23;20636;-75
2021/09/18 12:58:50;;;;;;;2.23;1.93;;;22.60;99.90;;;;;;6095937;23;20398;-74
2021/09/18 13:01:19;;;;;;;2.23;1.90;;;22.70;99.90;;;;;;6096646;23;20499;-72
2021/09/18 13:04:02;;;;;;;1.83;1.47;;;22.60;99.90;;;;;;6096415;23;20410;-73
2021/09/18 13:06:31;;;;;;;2.67;2.33;;;22.50;99.90;;;;;;6096482;23;20477;-71
2021/09/18 13:09:01;;;;;;;3.40;2.93;;;22.50;99.90;;;;;;6096682;23;20433;-74
2021/09/18 13:11:32;;;;;;;2.70;2.43;;;22.40;99.90;;;;;;6095985;23;20904;-72
2021/09/18 13:14:14;;;;;;;2.70;2.43;;;22.30;99.90;;;;;;6097300;23;20414;-75
2021/09/18 13:16:57;;;;;;;4.63;4.20;;;22.10;99.90;;;;;;6095985;23;20406;-71
2021/09/18 13:19:28;;;;;;;2.37;2.07;;;22.00;99.90;;;;;;6097388;23;20488;-75
2021/09/18 13:21:55;;;;;;;3.23;2.40;;;21.90;99.90;;;;;;6096276;23;20450;-71
2021/09/18 13:24:23;;;;;;;1.80;1.50;;;21.80;99.90;;;;;;6097089;23;20402;-72
2021/09/18 13:26:51;;;;;;;2.80;2.30;;;22.00;99.90;;;;;;6096305;23;20860;-72
2021/09/18 13:29:25;;;;;;;2.43;2.17;;;22.20;99.90;;;;;;6097039;23;20402;-73
2021/09/18 13:31:52;;;;;;;2.70;2.43;;;22.40;99.90;;;;;;6097356;23;20428;-77
2021/09/18 13:34:20;;;;;;;3.50;2.73;;;22.60;99.90;;;;;;6096974;23;20437;-75
2021/09/18 13:36:48;;;;;;;2.77;2.40;;;22.70;99.90;;;;;;6095453;23;20924;-72
2021/09/18 13:39:16;;;;;;;2.50;2.30;;;22.80;99.90;;;;;;6096980;23;20429;-75
2021/09/18 13:41:48;;;;;;;3.30;2.67;;;22.70;99.90;;;;;;6096032;23;20485;-73
2021/09/18 13:44:15;;;;;;;2.77;2.57;;;22.50;99.90;;;;;;6097407;23;20450;-74
2021/09/18 13:46:44;;;;;;;4.20;2.60;;;22.30;99.90;;;;;;6095377;23;20518;-74
2021/09/18 13:49:11;;;;;;;3.27;2.60;;;22.20;99.90;;;;;;6097202;23;20638;-72
2021/09/18 13:51:39;;;;;;;3.03;2.60;;;22.00;99.90;;;;;;6097289;23;20686;-70
2021/09/18 13:54:10;;;;;;;3.53;2.67;;;21.80;99.90;;;;;;6096835;23;20390;-74
2021/09/18 13:56:37;;;;;;;3.40;2.67;;;21.60;99.90;;;;;;6097307;23;20402;-74
2021/09/18 13:59:04;;;;;;;3.63;3.17;;;21.50;99.90;;;;;;6097148;23;20418;-74
2021/09/18 14:01:31;;;;;;;2.77;2.33;;;21.30;99.90;;;;;;6096438;23;20460;-73
2021/09/18 14:04:02;;;;;;;2.93;2.63;;;21.20;99.90;;;;;;6096072;23;20460;-77
2021/09/18 14:06:29;;;;;;;2.90;2.40;;;21.10;99.90;;;;;;6095095;23;20421;-75
2021/09/18 14:08:56;;;;;;;4.60;2.93;;;21.00;99.90;;;;;;6096128;23;20484;-75
2021/09/18 14:11:25;;;;;;;3.00;2.70;;;20.80;99.90;;;;;;6095756;23;20458;-71
2021/09/18 14:13:54;;;;;;;2.70;2.50;;;20.70;99.90;;;;;;6095847;23;20401;-73
2021/09/18 14:16:22;;;;;;;3.40;3.03;;;20.70;99.90;;;;;;6095770;23;20423;-72
2021/09/18 14:18:49;;;;;;;3.40;2.93;;;20.60;99.90;;;;;;6095479;23;20428;-75
2021/09/18 14:21:17;;;;;;;4.90;2.80;;;20.50;99.90;;;;;;6096536;23;20878;-74
2021/09/18 14:23:44;;;;;;;2.77;2.57;;;20.50;99.90;;;;;;6061781;23;20820;-70
2021/09/18 14:26:15;;;;;;;4.57;3.50;;;20.50;99.90;;;;;;6091817;23;20394;-76
2021/09/18 14:28:44;;;;;;;2.90;2.67;;;20.40;99.90;;;;;;6094795;23;20398;-73
2021/09/18 14:31:12;;;;;;;3.60;3.10;;;20.40;99.90;;;;;;6094095;23;20396;-73
2021/09/18 14:33:41;;;;;;;2.73;2.33;;;20.40;99.90;;;;;;6094108;23;20387;-70
2021/09/18 14:36:08;;;;;;;3.50;3.20;;;20.30;99.90;;;;;;6093574;23;20405;-73
2021/09/18 14:38:36;;;;;;;3.60;2.97;;;20.30;99.90;;;;;;6095090;23;20440;-71
2021/09/18 14:41:03;;;;;;;3.40;2.80;;;20.40;99.90;;;;;;6094821;23;20399;-73
2021/09/18 14:43:30;;;;;;;3.03;2.83;;;20.30;99.90;;;;;;6094691;23;20518;-78
2021/09/18 14:46:00;;;;;;;2.90;2.30;;;20.40;99.90;;;;;;6094342;23;20460;-72
2021/09/18 14:48:27;;;;;;;2.57;1.97;;;20.40;99.90;;;;;;6096250;23;20462;-73
2021/09/18 14:50:55;;;;;;;2.60;2.40;;;20.40;99.90;;;;;;6093226;23;20411;-72
2021/09/18 14:53:22;;;;;;;2.33;2.00;;;20.40;99.90;;;;;;6093032;23;20576;-73
2021/09/18 14:55:50;;;;;;;2.17;1.50;;;20.40;99.90;;;;;;6094205;23;20401;-74
2021/09/18 14:58:18;;;;;;;2.97;2.33;;;20.50;99.90;;;;;;6095018;23;20435;-72
2021/09/18 15:00:45;;;;;;;2.30;1.80;;;20.40;99.90;;;;;;6094182;23;20399;-73
2021/09/18 15:03:14;;;;;;;2.03;1.83;;;20.50;99.90;;;;;;6095386;23;20450;-73
2021/09/18 15:05:41;;;;;;;2.77;2.27;;;20.50;99.90;;;;;;6094653;23;20451;-72
2021/09/18 15:08:08;;;;;;;3.23;2.33;;;20.50;99.90;;;;;;6095069;23;20401;-73
2021/09/18 15:10:35;;;;;;;2.13;2.03;;;20.60;99.90;;;;;;6094963;23;20853;-74
2021/09/18 15:13:02;;;;;;;3.83;2.03;;;20.70;99.90;;;;;;6094641;23;20516;-73
2021/09/18 15:15:30;;;;;;;3.43;1.90;;;20.50;99.90;;;;;;6094531;23;20479;-72
2021/09/18 15:17:57;;;;;;;1.83;1.73;;;20.60;99.90;;;;;;6094549;23;20424;-73
2021/09/18 15:20:26;;;;;;;2.20;2.00;;;20.50;99.90;;;;;;6094398;23;20828;-73
2021/09/18 15:22:58;;;;;;;2.20;2.00;;;20.60;99.90;;;;;;6095405;23;20454;-74
2021/09/18 15:25:26;;;;;;;2.60;1.93;;;20.50;99.90;;;;;;6094866;23;20396;-73
2021/09/18 15:27:54;;;;;;;1.70;1.60;;;20.50;99.90;;;;;;6095922;23;20424;-74
2021/09/18 15:30:21;;;;;;;1.30;1.20;;;20.50;99.90;;;;;;6097488;23;20418;-72
2021/09/18 15:32:49;;;;;;;2.33;1.47;;;20.40;99.90;;;;;;6096769;23;20491;-73
2021/09/18 15:35:16;;;;;;;1.90;1.30;;;20.50;99.90;;;;;;6096467;23;20477;-72
2021/09/18 15:37:44;;;;;;;1.77;1.50;;;20.50;99.90;;;;;;6097087;23;20439;-73